createdAt,value
2018-09-11T00:02:24.538Z,78.56
2018-09-11T00:04:52.886Z,79.17
2018-09-11T00:07:21.319Z,79.34
2018-09-11T00:09:49.708Z,79.42
2018-09-11T00:12:18.064Z,80.38
2018-09-11T00:14:46.417Z,81.35
2018-09-11T00:17:14.734Z,80.76
2018-09-11T00:19:43.096Z,80.76
2018-09-11T00:22:11.394Z,79.81
2018-09-11T00:24:39.811Z,80.01
2018-09-11T00:27:08.150Z,79.31
2018-09-11T00:29:36.526Z,80.37
2018-09-11T00:32:04.961Z,80.67
2018-09-11T00:34:33.303Z,80.62
2018-09-11T00:37:01.857Z,80.28
2018-09-11T00:39:30.234Z,80.52
2018-09-11T00:41:58.616Z,80.17
2018-09-11T00:44:26.925Z,80.48
2018-09-11T00:46:55.263Z,80.46
2018-09-11T00:49:23.567Z,80.50
2018-09-11T00:51:52.043Z,80.91
2018-09-11T00:54:20.480Z,80.33
2018-09-11T00:56:48.837Z,80.02
2018-09-11T00:59:17.135Z,80.28
2018-09-11T01:01:45.540Z,80.36
2018-09-11T01:04:14.988Z,79.94
2018-09-11T01:06:43.360Z,80.68
2018-09-11T01:09:11.835Z,80.69
2018-09-11T01:11:40.176Z,80.88
2018-09-11T01:14:08.562Z,80.31
2018-09-11T01:16:37.046Z,80.32
2018-09-11T01:19:05.418Z,81.08
2018-09-11T01:21:33.768Z,81.21
2018-09-11T01:24:02.086Z,81.24
2018-09-11T01:26:30.511Z,82.00
2018-09-11T01:28:58.836Z,81.30
2018-09-11T01:31:27.232Z,81.94
2018-09-11T01:33:55.659Z,81.68
2018-09-11T01:36:24.198Z,81.83
2018-09-11T01:38:52.647Z,82.61
2018-09-11T01:41:21.097Z,81.76
2018-09-11T01:43:49.522Z,81.22
2018-09-11T01:46:17.902Z,81.46
2018-09-11T01:48:46.276Z,81.73
2018-09-11T01:51:14.640Z,81.74
2018-09-11T01:53:42.981Z,82.39
2018-09-11T01:56:11.370Z,82.61
2018-09-11T01:58:39.679Z,82.99
2018-09-11T02:01:08.054Z,82.10
2018-09-11T02:03:36.536Z,82.86
2018-09-11T02:06:05.055Z,82.73
2018-09-11T02:08:33.386Z,82.70
2018-09-11T02:11:01.749Z,82.04
2018-09-11T02:13:30.076Z,82.28
2018-09-11T02:15:58.420Z,82.50
2018-09-11T02:18:26.737Z,82.33
2018-09-11T02:20:55.153Z,81.46
2018-09-11T02:23:23.682Z,81.87
2018-09-11T02:25:52.155Z,81.40
2018-09-11T02:28:20.482Z,81.28
2018-09-11T02:30:48.787Z,81.33
2018-09-11T02:33:17.123Z,81.78
2018-09-11T02:35:45.511Z,79.85
2018-09-11T02:38:13.851Z,80.26
2018-09-11T02:40:42.243Z,81.10
2018-09-11T02:43:10.583Z,81.07
2018-09-11T02:45:38.968Z,78.80
2018-09-11T02:48:07.423Z,78.63
2018-09-11T02:50:35.751Z,77.06
2018-09-11T02:55:31.441Z,76.89
2018-09-11T02:57:59.780Z,76.94
2018-09-11T03:00:28.223Z,76.48
2018-09-11T03:02:56.518Z,76.93
2018-09-11T03:05:24.975Z,77.86
2018-09-11T03:07:53.392Z,78.10
2018-09-11T03:10:21.766Z,77.03
2018-09-11T03:12:50.082Z,77.29
2018-09-11T03:15:18.427Z,76.60
2018-09-11T03:17:46.731Z,76.52
2018-09-11T03:20:15.094Z,76.37
2018-09-11T03:22:43.416Z,76.64
2018-09-11T03:25:11.773Z,77.08
2018-09-11T03:27:40.111Z,76.65
2018-09-11T03:30:09.139Z,77.58
2018-09-11T03:32:37.471Z,78.31
2018-09-11T03:35:06.082Z,77.71
2018-09-11T03:37:34.401Z,77.69
2018-09-11T03:40:02.796Z,77.93
2018-09-11T03:42:31.326Z,78.04
2018-09-11T03:44:59.614Z,77.99
2018-09-11T03:47:27.984Z,78.15
2018-09-11T03:49:56.482Z,78.48
2018-09-11T03:52:24.955Z,78.49
2018-09-11T03:54:53.262Z,78.29
2018-09-11T03:57:21.693Z,77.39
2018-09-11T03:59:50.127Z,76.31
2018-09-11T04:02:18.520Z,77.08
2018-09-11T04:04:46.861Z,76.78
2018-09-11T04:07:15.171Z,76.96
2018-09-11T04:09:43.682Z,76.41
2018-09-11T04:12:11.973Z,76.33
2018-09-11T04:14:40.301Z,76.68
2018-09-11T04:17:08.594Z,76.17
2018-09-11T04:19:37.102Z,76.35
2018-09-11T04:22:05.419Z,76.44
2018-09-11T04:24:33.759Z,76.26
2018-09-11T04:27:02.056Z,76.07
2018-09-11T04:29:30.488Z,75.95
2018-09-11T04:31:58.868Z,76.62
2018-09-11T04:34:27.450Z,76.90
2018-09-11T04:36:55.800Z,76.79
2018-09-11T04:39:24.170Z,76.64
2018-09-11T04:41:52.518Z,76.67
2018-09-11T04:44:20.782Z,76.55
2018-09-11T04:46:49.213Z,76.47
2018-09-11T04:49:17.528Z,76.41
2018-09-11T04:51:45.828Z,76.50
2018-09-11T04:54:14.172Z,77.16
2018-09-11T04:56:42.534Z,76.87
2018-09-11T04:59:10.840Z,76.52
2018-09-11T05:01:39.194Z,77.21
2018-09-11T05:04:07.517Z,77.12
2018-09-11T05:06:36.350Z,77.53
2018-09-11T05:09:07.396Z,77.12
2018-09-11T05:11:35.961Z,76.84
2018-09-11T05:14:05.132Z,77.45
2018-09-11T05:16:33.614Z,77.17
2018-09-11T05:19:02.372Z,77.81
2018-09-11T05:21:30.747Z,77.10
2018-09-11T05:23:59.302Z,77.22
2018-09-11T05:26:28.319Z,77.64
2018-09-11T05:28:57.300Z,77.69
2018-09-11T05:31:25.715Z,77.73
2018-09-11T05:33:54.126Z,77.55
2018-09-11T05:36:22.498Z,76.90
2018-09-11T05:38:50.963Z,77.39
2018-09-11T05:41:19.211Z,77.47
2018-09-11T05:43:47.774Z,77.14
2018-09-11T05:46:16.186Z,77.34
2018-09-11T05:48:45.429Z,77.39
2018-09-11T05:51:13.796Z,77.63
2018-09-11T05:53:42.206Z,77.57
2018-09-11T05:56:10.576Z,77.35
2018-09-11T05:58:39.980Z,77.37
2018-09-11T06:01:08.544Z,77.32
2018-09-11T06:03:36.998Z,77.33
2018-09-11T06:06:05.425Z,76.58
2018-09-11T06:08:33.767Z,77.21
2018-09-11T06:11:02.151Z,76.67
2018-09-11T06:13:30.590Z,77.25
2018-09-11T06:15:59.078Z,76.60
2018-09-11T06:18:27.829Z,76.07
2018-09-11T06:20:56.158Z,76.19
2018-09-11T06:23:24.558Z,76.00
2018-09-11T06:25:53.174Z,75.60
2018-09-11T06:28:21.461Z,75.62
2018-09-11T06:30:49.946Z,75.09
2018-09-11T06:33:18.270Z,75.40
2018-09-11T06:35:46.617Z,74.79
2018-09-11T06:38:15.692Z,75.03
2018-09-11T06:40:44.097Z,74.27
2018-09-11T06:43:12.651Z,74.28
2018-09-11T06:45:40.970Z,74.32
2018-09-11T06:48:09.329Z,73.38
2018-09-11T06:50:37.642Z,73.35
2018-09-11T06:53:06.113Z,73.48
2018-09-11T06:55:34.429Z,73.28
2018-09-11T06:58:02.767Z,72.66
2018-09-11T07:00:31.218Z,71.08
2018-09-11T07:02:59.547Z,72.51
2018-09-11T07:05:27.936Z,72.28
2018-09-11T07:07:56.328Z,71.62
2018-09-11T07:10:24.907Z,72.14
2018-09-11T07:12:53.394Z,72.11
2018-09-11T07:15:21.840Z,71.62
2018-09-11T07:17:50.181Z,70.97
2018-09-11T07:20:18.842Z,71.42
2018-09-11T07:22:46.915Z,70.90
2018-09-11T07:25:15.307Z,70.68
2018-09-11T07:27:43.587Z,70.14
2018-09-11T07:30:11.974Z,70.37
2018-09-11T07:32:40.360Z,69.96
2018-09-11T07:35:08.882Z,70.03
2018-09-11T07:37:37.535Z,69.82
2018-09-11T07:40:06.169Z,69.74
2018-09-11T07:42:34.628Z,69.83
2018-09-11T07:45:04.287Z,68.65
2018-09-11T07:47:32.603Z,68.86
2018-09-11T07:50:01.051Z,69.12
2018-09-11T07:52:29.800Z,69.50
2018-09-11T07:54:58.215Z,68.97
2018-09-11T07:57:26.713Z,68.29
2018-09-11T07:59:55.024Z,68.97
2018-09-11T08:02:23.504Z,69.15
2018-09-11T08:04:52.211Z,68.63
2018-09-11T08:07:20.515Z,67.92
2018-09-11T08:09:48.845Z,68.00
2018-09-11T08:12:17.167Z,67.69
2018-09-11T08:14:45.495Z,67.22
2018-09-11T08:17:13.835Z,66.95
2018-09-11T08:19:42.303Z,66.26
2018-09-11T08:22:14.942Z,65.41
2018-09-11T08:24:43.266Z,65.54
2018-09-11T08:27:11.611Z,64.53
2018-09-11T08:29:39.955Z,64.35
2018-09-11T08:32:08.235Z,64.25
2018-09-11T08:34:36.540Z,65.44
2018-09-11T08:37:04.909Z,65.52
2018-09-11T08:39:33.203Z,64.80
2018-09-11T08:42:01.553Z,64.31
2018-09-11T08:44:29.868Z,64.29
2018-09-11T08:46:58.279Z,62.92
2018-09-11T08:49:26.666Z,63.36
2018-09-11T08:51:55.084Z,62.83
2018-09-11T08:54:23.358Z,63.18
2018-09-11T08:56:51.660Z,61.50
2018-09-11T08:59:19.916Z,61.10
2018-09-11T09:01:48.219Z,61.46
2018-09-11T09:04:16.619Z,62.57
2018-09-11T09:06:45.275Z,61.78
2018-09-11T09:09:13.597Z,62.01
2018-09-11T09:11:41.909Z,60.99
2018-09-11T09:14:10.258Z,61.30
2018-09-11T09:16:38.682Z,59.24
2018-09-11T09:19:07.007Z,60.00
2018-09-11T09:21:35.325Z,60.33
2018-09-11T09:24:03.627Z,59.16
2018-09-11T09:26:32.036Z,59.04
2018-09-11T09:29:00.317Z,58.82
2018-09-11T09:31:28.731Z,59.44
2018-09-11T09:33:57.015Z,58.29
2018-09-11T09:36:25.544Z,58.78
2018-09-11T09:38:53.950Z,58.61
2018-09-11T09:41:22.442Z,59.34
2018-09-11T09:43:50.841Z,58.59
2018-09-11T09:46:19.290Z,57.94
2018-09-11T09:48:47.616Z,58.54
2018-09-11T09:51:16.023Z,56.92
2018-09-11T09:53:44.877Z,56.30
2018-09-11T09:56:13.153Z,56.62
2018-09-11T09:58:41.474Z,56.18
2018-09-11T10:01:15.287Z,56.68
2018-09-11T10:03:43.674Z,55.48
2018-09-11T10:06:12.068Z,56.12
2018-09-11T10:08:40.421Z,54.89
2018-09-11T10:11:08.721Z,55.46
2018-09-11T10:13:37.116Z,55.67
2018-09-11T10:16:05.439Z,54.93
2018-09-11T10:18:33.780Z,53.92
2018-09-11T10:21:02.054Z,54.85
2018-09-11T10:23:30.538Z,54.12
2018-09-11T10:25:58.874Z,52.76
2018-09-11T10:28:27.206Z,55.05
2018-09-11T10:30:55.571Z,54.42
2018-09-11T10:33:23.944Z,53.39
2018-09-11T10:35:52.315Z,52.95
2018-09-11T10:38:21.036Z,52.59
2018-09-11T10:40:49.432Z,52.41
2018-09-11T10:43:17.882Z,52.03
2018-09-11T10:45:47.292Z,52.83
2018-09-11T10:48:15.601Z,52.55
2018-09-11T10:50:43.983Z,52.23
2018-09-11T10:53:12.297Z,52.39
2018-09-11T10:55:40.628Z,52.11
2018-09-11T10:58:08.974Z,52.81
2018-09-11T11:00:37.339Z,52.52
2018-09-11T11:03:05.753Z,52.11
2018-09-11T11:05:34.089Z,51.16
2018-09-11T11:08:02.435Z,51.16
2018-09-11T11:10:31.056Z,51.08
2018-09-11T11:12:59.360Z,49.89
2018-09-11T11:15:27.768Z,50.13
2018-09-11T11:17:56.080Z,48.72
2018-09-11T11:20:24.717Z,48.85
2018-09-11T11:22:53.075Z,49.74
2018-09-11T11:25:21.403Z,49.64
2018-09-11T11:27:49.687Z,48.01
2018-09-11T11:30:18.101Z,47.42
2018-09-11T11:32:46.472Z,48.95
2018-09-11T11:35:14.807Z,48.28
2018-09-11T11:37:43.189Z,47.83
2018-09-11T11:40:11.606Z,44.56
2018-09-11T11:42:39.965Z,46.85
2018-09-11T11:45:08.466Z,46.83
2018-09-11T11:47:36.763Z,47.60
2018-09-11T11:50:05.194Z,47.27
2018-09-11T11:52:33.565Z,46.84
2018-09-11T11:55:02.369Z,45.34
2018-09-11T11:57:30.759Z,45.85
2018-09-11T11:59:59.082Z,45.87
2018-09-11T12:02:27.389Z,45.89
2018-09-11T12:04:55.828Z,45.89
2018-09-11T12:07:24.145Z,44.93
2018-09-11T12:09:52.442Z,42.06
2018-09-11T12:12:20.822Z,41.07
2018-09-11T12:14:49.249Z,42.77
2018-09-11T12:17:17.632Z,43.20
2018-09-11T12:19:45.940Z,43.44
2018-09-11T12:22:14.265Z,41.40
2018-09-11T12:24:42.718Z,42.67
2018-09-11T12:27:11.006Z,42.79
2018-09-11T12:29:39.286Z,43.53
2018-09-11T12:32:07.600Z,41.73
2018-09-11T12:34:36.014Z,43.17
2018-09-11T12:37:04.329Z,41.10
2018-09-11T12:39:32.683Z,40.21
2018-09-11T12:42:01.014Z,40.82
2018-09-11T12:44:29.297Z,41.42
2018-09-11T12:46:57.779Z,41.10
2018-09-11T12:49:25.926Z,42.47
2018-09-11T12:51:54.286Z,42.08
2018-09-11T12:54:22.635Z,41.54
2018-09-11T12:56:50.999Z,43.42
2018-09-11T12:59:19.418Z,43.10
2018-09-11T13:01:47.784Z,42.49
2018-09-11T13:04:16.110Z,42.23
2018-09-11T13:06:44.483Z,41.33
2018-09-11T13:09:12.924Z,40.94
2018-09-11T13:11:41.251Z,40.11
2018-09-11T13:14:09.586Z,40.86
2018-09-11T13:16:37.874Z,41.25
2018-09-11T13:19:06.173Z,41.59
2018-09-11T13:21:34.471Z,40.62
2018-09-11T13:24:02.826Z,42.41
2018-09-11T13:26:31.103Z,42.50
2018-09-11T13:28:59.418Z,41.72
2018-09-11T13:31:27.763Z,41.46
2018-09-11T13:33:56.172Z,40.47
2018-09-11T13:36:24.478Z,40.81
2018-09-11T13:38:52.897Z,39.30
2018-09-11T13:41:21.198Z,41.59
2018-09-11T13:43:49.637Z,42.73
2018-09-11T13:46:17.977Z,40.22
2018-09-11T13:48:46.323Z,39.58
2018-09-11T13:51:14.586Z,40.55
2018-09-11T13:53:43.199Z,40.17
2018-09-11T13:56:11.801Z,41.63
2018-09-11T13:58:40.199Z,41.74
2018-09-11T14:01:08.654Z,39.49
2018-09-11T14:03:36.991Z,40.82
2018-09-11T14:06:05.302Z,42.27
2018-09-11T14:08:33.671Z,41.02
2018-09-11T14:11:01.985Z,41.59
2018-09-11T14:13:30.395Z,40.13
2018-09-11T14:16:01.574Z,39.49
2018-09-11T14:18:29.898Z,40.57
2018-09-11T14:20:58.219Z,41.92
2018-09-11T14:23:26.579Z,42.29
2018-09-11T14:25:54.902Z,42.27
2018-09-11T14:28:23.189Z,40.44
2018-09-11T14:30:51.522Z,41.26
2018-09-11T14:33:20.119Z,42.01
2018-09-11T14:35:48.440Z,41.51
2018-09-11T14:38:16.792Z,40.35
2018-09-11T14:40:45.488Z,41.67
2018-09-11T14:43:13.790Z,41.95
2018-09-11T14:45:42.091Z,42.37
2018-09-11T14:48:10.524Z,40.19
2018-09-11T14:50:38.883Z,40.73
2018-09-11T14:53:07.171Z,41.88
2018-09-11T14:55:35.561Z,42.19
2018-09-11T14:58:03.986Z,42.15
2018-09-11T15:00:32.320Z,42.23
2018-09-11T15:03:00.665Z,42.13
2018-09-11T15:05:29.011Z,40.47
2018-09-11T15:07:57.353Z,40.72
2018-09-11T15:10:25.766Z,39.98
2018-09-11T15:12:54.099Z,41.07
2018-09-11T15:15:22.497Z,40.22
2018-09-11T15:17:50.871Z,41.11
2018-09-11T15:20:19.182Z,40.57
2018-09-11T15:22:47.566Z,41.98
2018-09-11T15:25:15.907Z,40.96
2018-09-11T15:27:44.259Z,42.06
2018-09-11T15:30:12.643Z,40.60
2018-09-11T15:32:40.991Z,42.06
2018-09-11T15:35:09.338Z,42.63
2018-09-11T15:37:37.712Z,43.51
2018-09-11T15:40:06.565Z,42.07
2018-09-11T15:42:34.966Z,42.78
2018-09-11T15:45:03.347Z,43.15
2018-09-11T15:47:31.760Z,42.03
2018-09-11T15:50:00.124Z,43.35
2018-09-11T15:52:28.558Z,42.00
2018-09-11T15:54:56.938Z,42.10
2018-09-11T15:57:25.927Z,42.69
2018-09-11T15:59:54.423Z,43.19
2018-09-11T16:02:22.848Z,44.16
2018-09-11T16:04:51.390Z,43.29
2018-09-11T16:07:19.942Z,41.86
2018-09-11T16:09:48.932Z,42.31
2018-09-11T16:12:17.290Z,42.70
2018-09-11T16:14:45.655Z,43.86
2018-09-11T16:17:14.062Z,41.56
2018-09-11T16:19:42.514Z,40.90
2018-09-11T16:22:10.982Z,41.92
2018-09-11T16:24:39.374Z,40.48
2018-09-11T16:27:09.741Z,42.06
2018-09-11T16:29:38.512Z,43.11
2018-09-11T16:32:07.299Z,43.32
2018-09-11T16:34:36.223Z,44.01
2018-09-11T16:37:05.791Z,41.23
2018-09-11T16:39:34.352Z,42.42
2018-09-11T16:42:02.766Z,42.82
2018-09-11T16:44:32.024Z,42.35
2018-09-11T16:47:00.444Z,43.14
2018-09-11T16:49:28.859Z,41.77
2018-09-11T16:51:57.806Z,42.99
2018-09-11T16:54:26.392Z,44.72
2018-09-11T16:56:54.773Z,44.16
2018-09-11T16:59:23.942Z,44.43
2018-09-11T17:01:53.009Z,45.02
2018-09-11T17:04:21.374Z,45.50
2018-09-11T17:06:49.750Z,45.12
2018-09-11T17:09:18.222Z,45.15
2018-09-11T17:11:46.594Z,45.11
2018-09-11T17:14:14.950Z,45.16
2018-09-11T17:16:43.435Z,46.00
2018-09-11T17:19:11.859Z,46.70
2018-09-11T17:21:40.631Z,47.47
2018-09-11T17:24:09.385Z,49.89
2018-09-11T17:26:38.048Z,50.65
2018-09-11T17:29:06.773Z,50.08
2018-09-11T17:31:35.715Z,50.48
2018-09-11T17:34:04.126Z,50.27
2018-09-11T17:36:32.972Z,50.91
2018-09-11T17:39:01.359Z,50.84
2018-09-11T17:41:29.714Z,51.81
2018-09-11T17:43:58.072Z,51.86
2018-09-11T17:46:26.411Z,53.37
2018-09-11T17:48:54.833Z,53.58
2018-09-11T17:51:23.166Z,53.96
2018-09-11T17:53:51.636Z,55.04
2018-09-11T17:56:20.953Z,54.71
2018-09-11T17:58:50.081Z,55.37
2018-09-11T18:01:18.418Z,54.70
2018-09-11T18:03:47.481Z,55.37
2018-09-11T18:06:16.257Z,54.60
2018-09-11T18:08:44.839Z,55.50
2018-09-11T18:11:13.279Z,56.34
2018-09-11T18:13:41.627Z,56.10
2018-09-11T18:16:10.004Z,57.25
2018-09-11T18:18:38.400Z,56.88
2018-09-11T18:21:08.793Z,57.33
2018-09-11T18:23:37.206Z,57.55
2018-09-11T18:26:05.845Z,58.17
2018-09-11T18:28:34.372Z,57.55
2018-09-11T18:31:03.233Z,57.87
2018-09-11T18:33:31.643Z,57.83
2018-09-11T18:35:59.965Z,58.26
2018-09-11T18:38:28.435Z,57.34
2018-09-11T18:40:56.779Z,57.93
2018-09-11T18:43:25.163Z,58.18
2018-09-11T18:45:53.595Z,57.96
2018-09-11T18:48:22.050Z,58.26
2018-09-11T18:50:50.752Z,57.94
2018-09-11T18:53:19.199Z,59.95
2018-09-11T18:55:47.521Z,58.36
2018-09-11T18:58:15.848Z,58.39
2018-09-11T19:00:44.244Z,58.71
2018-09-11T19:03:12.846Z,59.17
2018-09-11T19:05:41.186Z,59.31
2018-09-11T19:08:09.584Z,59.58
2018-09-11T19:10:37.983Z,59.80
2018-09-11T19:13:07.832Z,60.08
2018-09-11T19:15:36.787Z,59.50
2018-09-11T19:18:06.237Z,60.09
2018-09-11T19:20:36.384Z,60.37
2018-09-11T19:23:04.815Z,61.59
2018-09-11T19:25:33.298Z,60.39
2018-09-11T19:28:01.883Z,60.42
2018-09-11T19:30:30.714Z,60.46
2018-09-11T19:32:59.085Z,61.35
2018-09-11T19:35:27.829Z,61.99
2018-09-11T19:37:56.427Z,61.09
2018-09-11T19:40:24.973Z,62.28
2018-09-11T19:42:53.850Z,62.11
2018-09-11T19:45:22.363Z,62.28
2018-09-11T19:47:50.820Z,62.01
2018-09-11T19:50:19.480Z,61.57
2018-09-11T19:52:48.078Z,62.67
2018-09-11T19:55:16.646Z,63.61
2018-09-11T19:57:45.213Z,62.72
2018-09-11T20:00:13.701Z,63.42
2018-09-11T20:02:42.386Z,63.78
2018-09-11T20:05:10.844Z,63.12
2018-09-11T20:07:39.201Z,64.61
2018-09-11T20:10:07.790Z,64.02
2018-09-11T20:12:36.212Z,64.26
2018-09-11T20:15:04.749Z,64.69
2018-09-11T20:17:33.170Z,64.46
2018-09-11T20:20:01.486Z,63.78
2018-09-11T20:22:29.985Z,64.76
2018-09-11T20:24:58.527Z,64.54
2018-09-11T20:27:26.941Z,65.53
2018-09-11T20:29:55.492Z,65.68
2018-09-11T20:32:23.888Z,65.63
2018-09-11T20:34:52.248Z,65.68
2018-09-11T20:37:20.702Z,66.49
2018-09-11T20:39:49.081Z,66.14
2018-09-11T20:42:17.430Z,66.54
2018-09-11T20:44:45.776Z,66.50
2018-09-11T20:47:14.083Z,66.59
2018-09-11T20:49:42.415Z,67.59
2018-09-11T20:52:10.698Z,67.98
2018-09-11T20:54:39.046Z,67.30
2018-09-11T20:57:07.388Z,67.94
2018-09-11T20:59:35.777Z,67.86
2018-09-11T21:02:04.168Z,67.96
2018-09-11T21:04:32.507Z,68.44
2018-09-11T21:07:00.885Z,69.21
2018-09-11T21:09:29.247Z,69.02
2018-09-11T21:11:57.590Z,69.03
2018-09-11T21:14:25.957Z,69.58
2018-09-11T21:16:54.283Z,69.97
2018-09-11T21:19:22.623Z,70.09
2018-09-11T21:21:51.004Z,69.16
2018-09-11T21:24:19.343Z,70.30
2018-09-11T21:26:47.937Z,69.93
2018-09-11T21:29:16.315Z,70.41
2018-09-11T21:31:44.645Z,71.16
2018-09-11T21:34:13.068Z,70.71
2018-09-11T21:36:41.349Z,70.79
2018-09-11T21:39:11.239Z,70.88
2018-09-11T21:41:39.599Z,70.59
2018-09-11T21:44:07.928Z,71.21
2018-09-11T21:46:36.262Z,70.89
2018-09-11T21:49:04.552Z,71.51
2018-09-11T21:51:32.866Z,71.43
2018-09-11T21:54:01.181Z,71.77
2018-09-11T21:56:29.515Z,71.81
2018-09-11T21:58:58.054Z,71.94
2018-09-11T22:01:31.650Z,72.07
2018-09-11T22:03:59.970Z,72.33
2018-09-11T22:06:28.278Z,72.43
2018-09-11T22:08:56.606Z,72.48
2018-09-11T22:11:24.885Z,72.75
2018-09-11T22:13:53.315Z,72.60
2018-09-11T22:16:21.678Z,72.91
2018-09-11T22:18:50.018Z,73.54
2018-09-11T22:21:18.370Z,73.67
2018-09-11T22:23:46.815Z,73.14
2018-09-11T22:26:15.137Z,72.93
2018-09-11T22:28:43.483Z,72.13
2018-09-11T22:31:11.823Z,72.13
2018-09-11T22:33:40.122Z,71.49
2018-09-11T22:36:08.515Z,71.12
2018-09-11T22:38:36.954Z,71.06
2018-09-11T22:41:05.531Z,70.77
2018-09-11T22:43:33.877Z,70.54
2018-09-11T22:46:02.214Z,70.47
2018-09-11T22:48:30.581Z,70.09
2018-09-11T22:50:58.918Z,69.79
2018-09-11T22:53:27.249Z,70.32
2018-09-11T22:55:55.582Z,70.48
2018-09-11T22:58:23.936Z,69.59
2018-09-11T23:00:52.317Z,69.27
2018-09-11T23:03:20.661Z,66.50
2018-09-11T23:05:48.959Z,67.15
2018-09-11T23:08:17.350Z,67.87
2018-09-11T23:10:45.650Z,68.26
2018-09-11T23:13:13.935Z,66.83
2018-09-11T23:15:42.254Z,67.01
2018-09-11T23:18:10.577Z,66.69
2018-09-11T23:20:38.947Z,65.95
2018-09-11T23:23:07.353Z,67.00
2018-09-11T23:25:35.761Z,66.42
2018-09-11T23:28:04.121Z,67.76
2018-09-11T23:30:32.535Z,68.72
2018-09-11T23:33:00.887Z,68.69
2018-09-11T23:35:29.223Z,67.08
2018-09-11T23:37:57.544Z,67.51
2018-09-11T23:40:25.969Z,67.69
2018-09-11T23:42:54.292Z,68.19
2018-09-11T23:45:22.593Z,68.16
2018-09-11T23:47:50.943Z,69.25
2018-09-11T23:50:19.242Z,69.12
2018-09-11T23:52:47.617Z,69.49
2018-09-11T23:55:15.943Z,68.76
2018-09-11T23:57:44.283Z,69.08
